sensor_id;sensor_type;location;lat;lon;timestamp;P1;durP1;ratioP1;P2;durP2;ratioP2
74471;SDS011;62920;53.572;10.050;2022-12-07T00:03:32;14.60;;;6.25;;
74471;SDS011;62920;53.572;10.050;2022-12-07T00:05:58;12.60;;;6.30;;
74471;SDS011;62920;53.572;10.050;2022-12-07T00:08:23;11.93;;;5.97;;
74471;SDS011;62920;53.572;10.050;2022-12-07T00:10:49;12.70;;;6.15;;
74471;SDS011;62920;53.572;10.050;2022-12-07T00:13:14;13.00;;;6.45;;
74471;SDS011;62920;53.572;10.050;2022-12-07T00:15:39;13.02;;;6.68;;
74471;SDS011;62920;53.572;10.050;2022-12-07T00:18:05;13.43;;;6.53;;
74471;SDS011;62920;53.572;10.050;2022-12-07T00:20:30;12.45;;;6.32;;
74471;SDS011;62920;53.572;10.050;2022-12-07T00:22:56;12.95;;;6.35;;
74471;SDS011;62920;53.572;10.050;2022-12-07T00:25:21;13.27;;;6.60;;
74471;SDS011;62920;53.572;10.050;2022-12-07T00:27:47;9.98;;;5.95;;
74471;SDS011;62920;53.572;10.050;2022-12-07T00:30:12;11.75;;;6.10;;
74471;SDS011;62920;53.572;10.050;2022-12-07T00:32:37;11.20;;;6.50;;
74471;SDS011;62920;53.572;10.050;2022-12-07T00:35:03;11.13;;;6.03;;
74471;SDS011;62920;53.572;10.050;2022-12-07T00:37:29;12.75;;;6.90;;
74471;SDS011;62920;53.572;10.050;2022-12-07T00:39:54;12.63;;;6.40;;
74471;SDS011;62920;53.572;10.050;2022-12-07T00:42:19;11.93;;;6.00;;
74471;SDS011;62920;53.572;10.050;2022-12-07T00:44:45;15.25;;;6.65;;
74471;SDS011;62920;53.572;10.050;2022-12-07T00:47:10;12.02;;;6.72;;
74471;SDS011;62920;53.572;10.050;2022-12-07T00:49:35;11.63;;;6.18;;
74471;SDS011;62920;53.572;10.050;2022-12-07T00:52:01;14.00;;;6.30;;
74471;SDS011;62920;53.572;10.050;2022-12-07T00:54:26;12.20;;;6.50;;
74471;SDS011;62920;53.572;10.050;2022-12-07T00:56:51;10.88;;;6.65;;
74471;SDS011;62920;53.572;10.050;2022-12-07T00:59:17;12.10;;;5.80;;
74471;SDS011;62920;53.572;10.050;2022-12-07T01:01:42;12.45;;;5.97;;
74471;SDS011;62920;53.572;10.050;2022-12-07T01:04:08;13.27;;;5.93;;
74471;SDS011;62920;53.572;10.050;2022-12-07T01:06:33;12.90;;;5.70;;
74471;SDS011;62920;53.572;10.050;2022-12-07T01:08:59;11.13;;;6.10;;
74471;SDS011;62920;53.572;10.050;2022-12-07T01:11:26;10.88;;;5.47;;
74471;SDS011;62920;53.572;10.050;2022-12-07T01:13:54;12.60;;;5.55;;
74471;SDS011;62920;53.572;10.050;2022-12-07T01:16:21;15.52;;;6.13;;
74471;SDS011;62920;53.572;10.050;2022-12-07T01:18:50;10.93;;;5.50;;
74471;SDS011;62920;53.572;10.050;2022-12-07T01:21:18;10.05;;;4.88;;
74471;SDS011;62920;53.572;10.050;2022-12-07T01:23:48;11.18;;;5.30;;
74471;SDS011;62920;53.572;10.050;2022-12-07T01:26:15;12.18;;;4.53;;
74471;SDS011;62920;53.572;10.050;2022-12-07T01:28:42;9.60;;;5.53;;
74471;SDS011;62920;53.572;10.050;2022-12-07T01:31:09;9.48;;;5.03;;
74471;SDS011;62920;53.572;10.050;2022-12-07T01:33:42;10.55;;;5.72;;
74471;SDS011;62920;53.572;10.050;2022-12-07T01:36:13;12.02;;;4.97;;
74471;SDS011;62920;53.572;10.050;2022-12-07T01:38:41;9.82;;;5.03;;
74471;SDS011;62920;53.572;10.050;2022-12-07T01:41:06;11.45;;;5.38;;
74471;SDS011;62920;53.572;10.050;2022-12-07T01:43:32;11.15;;;5.18;;
74471;SDS011;62920;53.572;10.050;2022-12-07T01:45:58;10.35;;;5.28;;
74471;SDS011;62920;53.572;10.050;2022-12-07T01:48:34;11.25;;;5.60;;
74471;SDS011;62920;53.572;10.050;2022-12-07T01:51:11;11.90;;;5.20;;
74471;SDS011;62920;53.572;10.050;2022-12-07T01:53:39;12.27;;;5.38;;
74471;SDS011;62920;53.572;10.050;2022-12-07T01:56:08;9.43;;;5.07;;
74471;SDS011;62920;53.572;10.050;2022-12-07T01:58:35;10.55;;;4.93;;
74471;SDS011;62920;53.572;10.050;2022-12-07T02:01:01;9.20;;;4.90;;
74471;SDS011;62920;53.572;10.050;2022-12-07T02:03:34;9.27;;;4.53;;
74471;SDS011;62920;53.572;10.050;2022-12-07T02:06:02;10.63;;;5.18;;
74471;SDS011;62920;53.572;10.050;2022-12-07T02:08:29;10.75;;;5.05;;
74471;SDS011;62920;53.572;10.050;2022-12-07T02:10:55;11.15;;;4.72;;
74471;SDS011;62920;53.572;10.050;2022-12-07T02:13:21;10.40;;;4.57;;
74471;SDS011;62920;53.572;10.050;2022-12-07T02:16:08;11.73;;;4.80;;
74471;SDS011;62920;53.572;10.050;2022-12-07T02:29:09;7.85;;;3.53;;
74471;SDS011;62920;53.572;10.050;2022-12-07T02:31:36;7.45;;;3.30;;
74471;SDS011;62920;53.572;10.050;2022-12-07T02:37:14;8.48;;;3.88;;
74471;SDS011;62920;53.572;10.050;2022-12-07T02:39:48;8.95;;;3.78;;
74471;SDS011;62920;53.572;10.050;2022-12-07T02:42:19;5.45;;;2.78;;
74471;SDS011;62920;53.572;10.050;2022-12-07T02:44:49;5.97;;;2.95;;
74471;SDS011;62920;53.572;10.050;2022-12-07T02:47:16;6.22;;;2.60;;
74471;SDS011;62920;53.572;10.050;2022-12-07T02:49:42;5.80;;;2.08;;
74471;SDS011;62920;53.572;10.050;2022-12-07T02:52:09;8.38;;;3.35;;
74471;SDS011;62920;53.572;10.050;2022-12-07T02:54:34;4.95;;;2.00;;
74471;SDS011;62920;53.572;10.050;2022-12-07T02:57:02;6.25;;;2.25;;
74471;SDS011;62920;53.572;10.050;2022-12-07T03:00:18;5.00;;;1.83;;
74471;SDS011;62920;53.572;10.050;2022-12-07T03:03:04;6.00;;;2.10;;
74471;SDS011;62920;53.572;10.050;2022-12-07T03:11:17;5.57;;;1.85;;
74471;SDS011;62920;53.572;10.050;2022-12-07T03:16:45;11.00;;;2.03;;
74471;SDS011;62920;53.572;10.050;2022-12-07T03:19:17;5.50;;;2.13;;
74471;SDS011;62920;53.572;10.050;2022-12-07T03:21:49;5.00;;;1.50;;
74471;SDS011;62920;53.572;10.050;2022-12-07T03:24:24;3.78;;;1.38;;
74471;SDS011;62920;53.572;10.050;2022-12-07T03:26:57;4.45;;;1.50;;
74471;SDS011;62920;53.572;10.050;2022-12-07T03:29:29;4.68;;;1.40;;
74471;SDS011;62920;53.572;10.050;2022-12-07T03:33:15;4.75;;;1.17;;
74471;SDS011;62920;53.572;10.050;2022-12-07T03:35:18;6.68;;;1.40;;
74471;SDS011;62920;53.572;10.050;2022-12-07T03:37:56;3.58;;;1.00;;
74471;SDS011;62920;53.572;10.050;2022-12-07T03:40:34;3.10;;;1.08;;
74471;SDS011;62920;53.572;10.050;2022-12-07T03:43:02;2.40;;;0.70;;
74471;SDS011;62920;53.572;10.050;2022-12-07T03:45:33;2.80;;;0.93;;
74471;SDS011;62920;53.572;10.050;2022-12-07T03:48:07;8.05;;;0.90;;
74471;SDS011;62920;53.572;10.050;2022-12-07T03:50:53;4.43;;;0.90;;
74471;SDS011;62920;53.572;10.050;2022-12-07T03:53:29;2.90;;;0.75;;
74471;SDS011;62920;53.572;10.050;2022-12-07T03:55:58;2.47;;;0.77;;
74471;SDS011;62920;53.572;10.050;2022-12-07T03:58:24;2.60;;;0.90;;
74471;SDS011;62920;53.572;10.050;2022-12-07T04:00:50;2.88;;;0.80;;
74471;SDS011;62920;53.572;10.050;2022-12-07T04:03:16;3.67;;;0.70;;
74471;SDS011;62920;53.572;10.050;2022-12-07T04:05:42;6.90;;;1.02;;
74471;SDS011;62920;53.572;10.050;2022-12-07T04:08:07;3.75;;;0.90;;
74471;SDS011;62920;53.572;10.050;2022-12-07T04:10:32;5.85;;;0.80;;
74471;SDS011;62920;53.572;10.050;2022-12-07T04:12:58;2.55;;;0.88;;
74471;SDS011;62920;53.572;10.050;2022-12-07T04:15:23;3.47;;;1.25;;
74471;SDS011;62920;53.572;10.050;2022-12-07T04:17:49;2.83;;;0.90;;
74471;SDS011;62920;53.572;10.050;2022-12-07T04:20:14;3.95;;;0.98;;
74471;SDS011;62920;53.572;10.050;2022-12-07T04:22:40;4.63;;;1.00;;
74471;SDS011;62920;53.572;10.050;2022-12-07T04:25:05;5.15;;;0.90;;
74471;SDS011;62920;53.572;10.050;2022-12-07T04:27:31;3.88;;;1.10;;
74471;SDS011;62920;53.572;10.050;2022-12-07T04:29:56;7.20;;;0.82;;
74471;SDS011;62920;53.572;10.050;2022-12-07T04:32:22;4.78;;;1.30;;
74471;SDS011;62920;53.572;10.050;2022-12-07T04:34:48;4.65;;;1.05;;
74471;SDS011;62920;53.572;10.050;2022-12-07T04:37:14;3.20;;;0.98;;
74471;SDS011;62920;53.572;10.050;2022-12-07T04:39:39;4.43;;;1.00;;
74471;SDS011;62920;53.572;10.050;2022-12-07T04:42:04;2.85;;;0.95;;
74471;SDS011;62920;53.572;10.050;2022-12-07T04:44:30;5.65;;;1.30;;
74471;SDS011;62920;53.572;10.050;2022-12-07T04:46:55;4.00;;;1.30;;
74471;SDS011;62920;53.572;10.050;2022-12-07T04:49:21;3.63;;;0.90;;
74471;SDS011;62920;53.572;10.050;2022-12-07T04:51:47;2.47;;;0.73;;
74471;SDS011;62920;53.572;10.050;2022-12-07T04:54:13;2.83;;;1.02;;
74471;SDS011;62920;53.572;10.050;2022-12-07T04:56:39;3.50;;;1.10;;
74471;SDS011;62920;53.572;10.050;2022-12-07T04:59:05;3.60;;;1.50;;
74471;SDS011;62920;53.572;10.050;2022-12-07T05:01:31;4.00;;;1.17;;
74471;SDS011;62920;53.572;10.050;2022-12-07T05:03:56;3.90;;;1.10;;
74471;SDS011;62920;53.572;10.050;2022-12-07T05:06:22;4.13;;;1.15;;
74471;SDS011;62920;53.572;10.050;2022-12-07T05:08:47;2.58;;;0.90;;
74471;SDS011;62920;53.572;10.050;2022-12-07T05:11:13;2.75;;;0.98;;
74471;SDS011;62920;53.572;10.050;2022-12-07T05:13:59;4.35;;;1.20;;
74471;SDS011;62920;53.572;10.050;2022-12-07T05:16:25;3.97;;;1.50;;
74471;SDS011;62920;53.572;10.050;2022-12-07T05:18:50;3.17;;;1.13;;
74471;SDS011;62920;53.572;10.050;2022-12-07T05:21:16;4.82;;;1.27;;
74471;SDS011;62920;53.572;10.050;2022-12-07T05:23:41;3.90;;;1.33;;
74471;SDS011;62920;53.572;10.050;2022-12-07T05:26:06;3.85;;;1.40;;
74471;SDS011;62920;53.572;10.050;2022-12-07T05:28:32;4.35;;;1.27;;
74471;SDS011;62920;53.572;10.050;2022-12-07T05:30:57;3.75;;;1.30;;
74471;SDS011;62920;53.572;10.050;2022-12-07T05:33:22;2.85;;;1.15;;
74471;SDS011;62920;53.572;10.050;2022-12-07T05:35:48;5.45;;;2.00;;
74471;SDS011;62920;53.572;10.050;2022-12-07T05:38:13;4.88;;;1.85;;
74471;SDS011;62920;53.572;10.050;2022-12-07T05:40:38;4.38;;;1.42;;
74471;SDS011;62920;53.572;10.050;2022-12-07T05:43:04;4.15;;;1.42;;
74471;SDS011;62920;53.572;10.050;2022-12-07T05:45:29;6.88;;;1.98;;
74471;SDS011;62920;53.572;10.050;2022-12-07T05:47:54;5.43;;;1.40;;
74471;SDS011;62920;53.572;10.050;2022-12-07T05:50:20;3.30;;;1.48;;
74471;SDS011;62920;53.572;10.050;2022-12-07T05:52:45;5.35;;;1.50;;
74471;SDS011;62920;53.572;10.050;2022-12-07T05:55:10;5.82;;;1.45;;
74471;SDS011;62920;53.572;10.050;2022-12-07T05:57:36;6.80;;;2.22;;
74471;SDS011;62920;53.572;10.050;2022-12-07T06:00:02;4.35;;;2.15;;
74471;SDS011;62920;53.572;10.050;2022-12-07T06:02:28;6.68;;;1.50;;
74471;SDS011;62920;53.572;10.050;2022-12-07T06:04:53;3.28;;;1.30;;
74471;SDS011;62920;53.572;10.050;2022-12-07T06:07:18;4.43;;;1.50;;
74471;SDS011;62920;53.572;10.050;2022-12-07T06:09:44;3.92;;;1.80;;
74471;SDS011;62920;53.572;10.050;2022-12-07T06:12:10;3.20;;;1.50;;
74471;SDS011;62920;53.572;10.050;2022-12-07T06:14:55;4.95;;;1.70;;
74471;SDS011;62920;53.572;10.050;2022-12-07T06:17:20;7.28;;;1.63;;
74471;SDS011;62920;53.572;10.050;2022-12-07T06:19:45;6.28;;;1.67;;
74471;SDS011;62920;53.572;10.050;2022-12-07T06:22:11;4.90;;;1.90;;
74471;SDS011;62920;53.572;10.050;2022-12-07T06:24:37;3.97;;;1.50;;
74471;SDS011;62920;53.572;10.050;2022-12-07T06:27:03;5.63;;;1.95;;
74471;SDS011;62920;53.572;10.050;2022-12-07T06:29:28;3.85;;;1.52;;
74471;SDS011;62920;53.572;10.050;2022-12-07T06:31:54;5.85;;;1.70;;
74471;SDS011;62920;53.572;10.050;2022-12-07T06:34:20;3.95;;;1.45;;
74471;SDS011;62920;53.572;10.050;2022-12-07T06:36:48;3.17;;;1.33;;
74471;SDS011;62920;53.572;10.050;2022-12-07T06:39:16;3.63;;;1.30;;
74471;SDS011;62920;53.572;10.050;2022-12-07T06:41:45;5.68;;;1.42;;
74471;SDS011;62920;53.572;10.050;2022-12-07T06:44:10;3.58;;;1.48;;
74471;SDS011;62920;53.572;10.050;2022-12-07T06:46:35;3.35;;;1.30;;
74471;SDS011;62920;53.572;10.050;2022-12-07T06:49:01;6.70;;;1.48;;
74471;SDS011;62920;53.572;10.050;2022-12-07T06:51:27;3.22;;;1.20;;
74471;SDS011;62920;53.572;10.050;2022-12-07T06:53:52;4.53;;;1.30;;
74471;SDS011;62920;53.572;10.050;2022-12-07T06:56:18;3.35;;;1.10;;
74471;SDS011;62920;53.572;10.050;2022-12-07T06:58:43;3.10;;;1.05;;
74471;SDS011;62920;53.572;10.050;2022-12-07T07:01:12;2.75;;;1.13;;
74471;SDS011;62920;53.572;10.050;2022-12-07T07:03:39;4.88;;;1.27;;
74471;SDS011;62920;53.572;10.050;2022-12-07T07:06:05;2.83;;;1.20;;
74471;SDS011;62920;53.572;10.050;2022-12-07T07:08:30;5.65;;;1.10;;
74471;SDS011;62920;53.572;10.050;2022-12-07T07:10:56;5.53;;;0.90;;
74471;SDS011;62920;53.572;10.050;2022-12-07T07:13:21;3.30;;;1.05;;
74471;SDS011;62920;53.572;10.050;2022-12-07T07:15:47;4.07;;;1.13;;
74471;SDS011;62920;53.572;10.050;2022-12-07T07:18:12;3.42;;;1.00;;
74471;SDS011;62920;53.572;10.050;2022-12-07T07:20:37;3.75;;;0.90;;
74471;SDS011;62920;53.572;10.050;2022-12-07T07:23:03;8.63;;;3.17;;
74471;SDS011;62920;53.572;10.050;2022-12-07T07:25:29;5.70;;;1.15;;
74471;SDS011;62920;53.572;10.050;2022-12-07T07:27:54;4.78;;;1.08;;
74471;SDS011;62920;53.572;10.050;2022-12-07T07:30:20;4.78;;;0.90;;
74471;SDS011;62920;53.572;10.050;2022-12-07T07:32:45;4.88;;;1.58;;
74471;SDS011;62920;53.572;10.050;2022-12-07T07:35:11;4.75;;;1.02;;
74471;SDS011;62920;53.572;10.050;2022-12-07T07:37:36;6.05;;;1.70;;
74471;SDS011;62920;53.572;10.050;2022-12-07T07:40:01;4.72;;;1.00;;
74471;SDS011;62920;53.572;10.050;2022-12-07T07:42:27;4.97;;;1.00;;
74471;SDS011;62920;53.572;10.050;2022-12-07T07:44:52;4.65;;;1.00;;
74471;SDS011;62920;53.572;10.050;2022-12-07T07:47:18;3.70;;;1.00;;
74471;SDS011;62920;53.572;10.050;2022-12-07T07:49:43;6.22;;;0.90;;
74471;SDS011;62920;53.572;10.050;2022-12-07T07:52:09;5.00;;;1.20;;
74471;SDS011;62920;53.572;10.050;2022-12-07T07:54:34;5.88;;;1.30;;
74471;SDS011;62920;53.572;10.050;2022-12-07T07:57:00;4.72;;;1.10;;
74471;SDS011;62920;53.572;10.050;2022-12-07T07:59:25;2.00;;;0.65;;
74471;SDS011;62920;53.572;10.050;2022-12-07T08:01:50;3.97;;;0.80;;
74471;SDS011;62920;53.572;10.050;2022-12-07T08:04:16;2.38;;;0.80;;
74471;SDS011;62920;53.572;10.050;2022-12-07T08:06:41;4.30;;;1.05;;
74471;SDS011;62920;53.572;10.050;2022-12-07T08:09:07;8.18;;;1.15;;
74471;SDS011;62920;53.572;10.050;2022-12-07T08:11:33;4.05;;;1.13;;
74471;SDS011;62920;53.572;10.050;2022-12-07T08:13:58;4.43;;;0.70;;
74471;SDS011;62920;53.572;10.050;2022-12-07T08:16:24;4.07;;;1.00;;
74471;SDS011;62920;53.572;10.050;2022-12-07T08:18:49;5.25;;;1.10;;
74471;SDS011;62920;53.572;10.050;2022-12-07T08:21:15;5.68;;;1.23;;
74471;SDS011;62920;53.572;10.050;2022-12-07T08:23:41;2.53;;;0.73;;
74471;SDS011;62920;53.572;10.050;2022-12-07T08:26:07;3.15;;;0.75;;
74471;SDS011;62920;53.572;10.050;2022-12-07T08:28:34;4.55;;;0.98;;
74471;SDS011;62920;53.572;10.050;2022-12-07T08:31:00;3.63;;;0.80;;
74471;SDS011;62920;53.572;10.050;2022-12-07T08:33:26;3.85;;;0.77;;
74471;SDS011;62920;53.572;10.050;2022-12-07T08:35:52;2.38;;;0.73;;
74471;SDS011;62920;53.572;10.050;2022-12-07T08:38:17;3.75;;;1.00;;
74471;SDS011;62920;53.572;10.050;2022-12-07T08:40:42;4.90;;;0.85;;
74471;SDS011;62920;53.572;10.050;2022-12-07T08:43:08;3.10;;;1.02;;
74471;SDS011;62920;53.572;10.050;2022-12-07T08:45:33;4.00;;;0.88;;
74471;SDS011;62920;53.572;10.050;2022-12-07T08:48:07;4.25;;;0.80;;
74471;SDS011;62920;53.572;10.050;2022-12-07T08:50:35;3.65;;;0.90;;
74471;SDS011;62920;53.572;10.050;2022-12-07T08:53:01;3.38;;;0.82;;
74471;SDS011;62920;53.572;10.050;2022-12-07T08:55:28;3.20;;;0.75;;
74471;SDS011;62920;53.572;10.050;2022-12-07T08:57:54;3.78;;;0.82;;
74471;SDS011;62920;53.572;10.050;2022-12-07T09:00:19;4.88;;;0.95;;
74471;SDS011;62920;53.572;10.050;2022-12-07T09:02:45;2.38;;;0.70;;
74471;SDS011;62920;53.572;10.050;2022-12-07T09:05:11;5.90;;;0.80;;
74471;SDS011;62920;53.572;10.050;2022-12-07T09:07:37;4.05;;;0.93;;
74471;SDS011;62920;53.572;10.050;2022-12-07T09:10:03;5.47;;;0.70;;
74471;SDS011;62920;53.572;10.050;2022-12-07T09:12:29;2.45;;;0.73;;
74471;SDS011;62920;53.572;10.050;2022-12-07T09:14:55;6.32;;;1.48;;
74471;SDS011;62920;53.572;10.050;2022-12-07T09:17:20;5.22;;;1.05;;
74471;SDS011;62920;53.572;10.050;2022-12-07T09:19:46;3.92;;;1.02;;
74471;SDS011;62920;53.572;10.050;2022-12-07T09:22:11;3.50;;;0.77;;
74471;SDS011;62920;53.572;10.050;2022-12-07T09:24:37;5.50;;;0.75;;
74471;SDS011;62920;53.572;10.050;2022-12-07T09:27:02;8.55;;;0.90;;
74471;SDS011;62920;53.572;10.050;2022-12-07T09:29:27;6.47;;;0.90;;
74471;SDS011;62920;53.572;10.050;2022-12-07T09:31:53;7.53;;;1.60;;
74471;SDS011;62920;53.572;10.050;2022-12-07T09:34:18;3.55;;;1.00;;
74471;SDS011;62920;53.572;10.050;2022-12-07T09:36:45;5.15;;;0.77;;
74471;SDS011;62920;53.572;10.050;2022-12-07T09:39:10;4.28;;;0.70;;
74471;SDS011;62920;53.572;10.050;2022-12-07T09:41:39;4.47;;;1.00;;
74471;SDS011;62920;53.572;10.050;2022-12-07T09:44:07;7.55;;;1.20;;
74471;SDS011;62920;53.572;10.050;2022-12-07T09:46:43;8.25;;;1.23;;
74471;SDS011;62920;53.572;10.050;2022-12-07T09:49:14;3.55;;;1.23;;
74471;SDS011;62920;53.572;10.050;2022-12-07T09:51:42;7.35;;;0.95;;
74471;SDS011;62920;53.572;10.050;2022-12-07T09:54:07;3.05;;;0.90;;
74471;SDS011;62920;53.572;10.050;2022-12-07T09:56:34;6.10;;;1.20;;
74471;SDS011;62920;53.572;10.050;2022-12-07T09:59:00;3.40;;;1.50;;
74471;SDS011;62920;53.572;10.050;2022-12-07T10:01:27;4.20;;;1.10;;
74471;SDS011;62920;53.572;10.050;2022-12-07T10:03:55;5.07;;;1.08;;
74471;SDS011;62920;53.572;10.050;2022-12-07T10:06:26;4.97;;;0.70;;
74471;SDS011;62920;53.572;10.050;2022-12-07T10:08:51;2.22;;;0.70;;
74471;SDS011;62920;53.572;10.050;2022-12-07T10:11:16;5.70;;;1.05;;
74471;SDS011;62920;53.572;10.050;2022-12-07T10:13:43;4.18;;;1.33;;
74471;SDS011;62920;53.572;10.050;2022-12-07T10:24:39;7.32;;;0.82;;
74471;SDS011;62920;53.572;10.050;2022-12-07T10:27:21;5.55;;;0.88;;
74471;SDS011;62920;53.572;10.050;2022-12-07T10:29:55;7.65;;;1.00;;
74471;SDS011;62920;53.572;10.050;2022-12-07T10:32:32;2.47;;;0.65;;
74471;SDS011;62920;53.572;10.050;2022-12-07T10:35:19;8.30;;;1.02;;
74471;SDS011;62920;53.572;10.050;2022-12-07T10:37:52;5.85;;;1.08;;
74471;SDS011;62920;53.572;10.050;2022-12-07T10:45:34;4.93;;;1.00;;
74471;SDS011;62920;53.572;10.050;2022-12-07T10:48:04;3.55;;;0.90;;
74471;SDS011;62920;53.572;10.050;2022-12-07T10:53:33;4.10;;;0.70;;
74471;SDS011;62920;53.572;10.050;2022-12-07T11:18:29;4.72;;;0.70;;
74471;SDS011;62920;53.572;10.050;2022-12-07T11:31:58;4.05;;;0.50;;
74471;SDS011;62920;53.572;10.050;2022-12-07T11:37:13;2.67;;;0.50;;
74471;SDS011;62920;53.572;10.050;2022-12-07T11:39:44;6.93;;;1.38;;
74471;SDS011;62920;53.572;10.050;2022-12-07T11:42:22;6.00;;;1.38;;
74471;SDS011;62920;53.572;10.050;2022-12-07T11:45:52;5.25;;;1.05;;
74471;SDS011;62920;53.572;10.050;2022-12-07T11:50:42;7.13;;;1.05;;
74471;SDS011;62920;53.572;10.050;2022-12-07T12:03:40;6.38;;;0.80;;
74471;SDS011;62920;53.572;10.050;2022-12-07T12:06:09;2.60;;;0.60;;
74471;SDS011;62920;53.572;10.050;2022-12-07T12:08:56;6.45;;;0.60;;
74471;SDS011;62920;53.572;10.050;2022-12-07T12:11:30;5.38;;;0.77;;
74471;SDS011;62920;53.572;10.050;2022-12-07T12:19:42;4.30;;;0.63;;
74471;SDS011;62920;53.572;10.050;2022-12-07T12:22:22;5.25;;;0.90;;
74471;SDS011;62920;53.572;10.050;2022-12-07T12:24:53;7.20;;;0.80;;
74471;SDS011;62920;53.572;10.050;2022-12-07T12:27:26;6.32;;;0.73;;
74471;SDS011;62920;53.572;10.050;2022-12-07T12:29:55;2.90;;;0.73;;
74471;SDS011;62920;53.572;10.050;2022-12-07T12:32:38;5.68;;;0.80;;
74471;SDS011;62920;53.572;10.050;2022-12-07T12:40:47;7.50;;;0.88;;
74471;SDS011;62920;53.572;10.050;2022-12-07T12:51:52;8.20;;;1.27;;
74471;SDS011;62920;53.572;10.050;2022-12-07T12:54:22;6.53;;;0.75;;
74471;SDS011;62920;53.572;10.050;2022-12-07T12:59:38;4.68;;;1.00;;
74471;SDS011;62920;53.572;10.050;2022-12-07T13:03:05;9.35;;;0.77;;
74471;SDS011;62920;53.572;10.050;2022-12-07T13:15:31;7.72;;;1.05;;
74471;SDS011;62920;53.572;10.050;2022-12-07T13:23:24;6.72;;;0.82;;
74471;SDS011;62920;53.572;10.050;2022-12-07T13:28:44;5.85;;;0.98;;
74471;SDS011;62920;53.572;10.050;2022-12-07T13:31:31;9.32;;;0.80;;
74471;SDS011;62920;53.572;10.050;2022-12-07T13:33:58;5.43;;;0.90;;
74471;SDS011;62920;53.572;10.050;2022-12-07T13:36:25;6.45;;;0.85;;
74471;SDS011;62920;53.572;10.050;2022-12-07T13:38:58;4.50;;;0.68;;
74471;SDS011;62920;53.572;10.050;2022-12-07T13:41:26;2.38;;;0.50;;
74471;SDS011;62920;53.572;10.050;2022-12-07T13:44:33;7.47;;;0.73;;
74471;SDS011;62920;53.572;10.050;2022-12-07T13:49:32;9.02;;;1.10;;
74471;SDS011;62920;53.572;10.050;2022-12-07T13:55:11;6.38;;;0.55;;
74471;SDS011;62920;53.572;10.050;2022-12-07T13:57:40;6.53;;;0.70;;
74471;SDS011;62920;53.572;10.050;2022-12-07T14:00:06;3.80;;;0.80;;
74471;SDS011;62920;53.572;10.050;2022-12-07T14:02:59;2.95;;;0.32;;
74471;SDS011;62920;53.572;10.050;2022-12-07T14:05:29;1.98;;;0.30;;
74471;SDS011;62920;53.572;10.050;2022-12-07T14:07:59;3.10;;;0.70;;
74471;SDS011;62920;53.572;10.050;2022-12-07T14:10:27;4.72;;;1.13;;
74471;SDS011;62920;53.572;10.050;2022-12-07T14:13:01;6.43;;;0.60;;
74471;SDS011;62920;53.572;10.050;2022-12-07T14:15:31;6.32;;;0.70;;
74471;SDS011;62920;53.572;10.050;2022-12-07T14:17:59;3.72;;;0.55;;
74471;SDS011;62920;53.572;10.050;2022-12-07T14:20:36;3.30;;;0.70;;
74471;SDS011;62920;53.572;10.050;2022-12-07T14:23:03;6.07;;;0.60;;
74471;SDS011;62920;53.572;10.050;2022-12-07T14:25:46;2.50;;;0.60;;
74471;SDS011;62920;53.572;10.050;2022-12-07T14:28:29;5.85;;;0.63;;
74471;SDS011;62920;53.572;10.050;2022-12-07T14:30:56;6.00;;;0.43;;
74471;SDS011;62920;53.572;10.050;2022-12-07T14:33:22;6.75;;;0.50;;
74471;SDS011;62920;53.572;10.050;2022-12-07T14:35:48;4.57;;;0.45;;
74471;SDS011;62920;53.572;10.050;2022-12-07T14:38:14;6.00;;;0.60;;
74471;SDS011;62920;53.572;10.050;2022-12-07T14:40:39;3.05;;;0.60;;
74471;SDS011;62920;53.572;10.050;2022-12-07T14:43:06;6.68;;;1.00;;
74471;SDS011;62920;53.572;10.050;2022-12-07T14:45:34;3.50;;;0.70;;
74471;SDS011;62920;53.572;10.050;2022-12-07T14:48:00;5.00;;;0.80;;
74471;SDS011;62920;53.572;10.050;2022-12-07T14:50:25;3.22;;;0.40;;
74471;SDS011;62920;53.572;10.050;2022-12-07T14:52:52;4.60;;;0.65;;
74471;SDS011;62920;53.572;10.050;2022-12-07T14:55:27;4.38;;;0.50;;
74471;SDS011;62920;53.572;10.050;2022-12-07T14:57:55;5.03;;;0.80;;
74471;SDS011;62920;53.572;10.050;2022-12-07T15:00:21;3.00;;;0.90;;
74471;SDS011;62920;53.572;10.050;2022-12-07T15:02:48;4.00;;;0.52;;
74471;SDS011;62920;53.572;10.050;2022-12-07T15:05:14;4.03;;;0.82;;
74471;SDS011;62920;53.572;10.050;2022-12-07T15:07:40;6.20;;;1.15;;
74471;SDS011;62920;53.572;10.050;2022-12-07T15:10:06;5.25;;;0.70;;
74471;SDS011;62920;53.572;10.050;2022-12-07T15:12:34;5.25;;;0.50;;
74471;SDS011;62920;53.572;10.050;2022-12-07T15:14:59;3.85;;;0.70;;
74471;SDS011;62920;53.572;10.050;2022-12-07T15:19:51;4.03;;;0.67;;
74471;SDS011;62920;53.572;10.050;2022-12-07T15:22:17;3.38;;;0.57;;
74471;SDS011;62920;53.572;10.050;2022-12-07T15:24:42;5.88;;;0.65;;
74471;SDS011;62920;53.572;10.050;2022-12-07T15:27:07;4.57;;;0.70;;
74471;SDS011;62920;53.572;10.050;2022-12-07T15:29:33;4.97;;;0.60;;
74471;SDS011;62920;53.572;10.050;2022-12-07T15:31:58;1.50;;;0.50;;
74471;SDS011;62920;53.572;10.050;2022-12-07T15:34:24;3.28;;;0.50;;
74471;SDS011;62920;53.572;10.050;2022-12-07T15:36:50;7.32;;;0.60;;
74471;SDS011;62920;53.572;10.050;2022-12-07T15:39:16;2.28;;;0.50;;
74471;SDS011;62920;53.572;10.050;2022-12-07T15:41:41;3.25;;;1.05;;
74471;SDS011;62920;53.572;10.050;2022-12-07T15:44:08;6.88;;;0.70;;
74471;SDS011;62920;53.572;10.050;2022-12-07T15:46:54;3.20;;;0.70;;
74471;SDS011;62920;53.572;10.050;2022-12-07T15:49:20;3.75;;;0.73;;
74471;SDS011;62920;53.572;10.050;2022-12-07T15:51:45;1.77;;;0.50;;
74471;SDS011;62920;53.572;10.050;2022-12-07T15:54:19;2.35;;;0.77;;
74471;SDS011;62920;53.572;10.050;2022-12-07T15:56:54;5.45;;;0.45;;
74471;SDS011;62920;53.572;10.050;2022-12-07T15:59:20;4.57;;;0.65;;
74471;SDS011;62920;53.572;10.050;2022-12-07T16:01:45;3.75;;;0.75;;
74471;SDS011;62920;53.572;10.050;2022-12-07T16:04:11;3.17;;;0.73;;
74471;SDS011;62920;53.572;10.050;2022-12-07T16:06:36;3.33;;;1.23;;
74471;SDS011;62920;53.572;10.050;2022-12-07T16:09:02;4.40;;;1.20;;
74471;SDS011;62920;53.572;10.050;2022-12-07T16:11:28;6.13;;;1.58;;
74471;SDS011;62920;53.572;10.050;2022-12-07T16:13:53;5.40;;;1.00;;
74471;SDS011;62920;53.572;10.050;2022-12-07T16:16:19;3.05;;;0.73;;
74471;SDS011;62920;53.572;10.050;2022-12-07T16:18:46;3.83;;;1.00;;
74471;SDS011;62920;53.572;10.050;2022-12-07T16:21:13;5.28;;;0.85;;
74471;SDS011;62920;53.572;10.050;2022-12-07T16:23:39;4.13;;;0.88;;
74471;SDS011;62920;53.572;10.050;2022-12-07T16:26:08;3.25;;;0.63;;
74471;SDS011;62920;53.572;10.050;2022-12-07T16:28:39;3.53;;;0.90;;
74471;SDS011;62920;53.572;10.050;2022-12-07T16:31:09;2.88;;;0.80;;
74471;SDS011;62920;53.572;10.050;2022-12-07T16:33:39;5.28;;;0.77;;
74471;SDS011;62920;53.572;10.050;2022-12-07T16:36:06;3.40;;;0.80;;
74471;SDS011;62920;53.572;10.050;2022-12-07T16:38:32;7.22;;;0.93;;
74471;SDS011;62920;53.572;10.050;2022-12-07T16:40:58;4.97;;;0.88;;
74471;SDS011;62920;53.572;10.050;2022-12-07T16:43:23;3.75;;;0.82;;
74471;SDS011;62920;53.572;10.050;2022-12-07T16:45:49;4.78;;;0.93;;
74471;SDS011;62920;53.572;10.050;2022-12-07T16:48:15;5.68;;;1.10;;
74471;SDS011;62920;53.572;10.050;2022-12-07T16:50:41;5.35;;;1.40;;
74471;SDS011;62920;53.572;10.050;2022-12-07T16:53:08;5.05;;;1.20;;
74471;SDS011;62920;53.572;10.050;2022-12-07T16:55:40;9.35;;;1.33;;
74471;SDS011;62920;53.572;10.050;2022-12-07T16:58:07;5.32;;;1.75;;
74471;SDS011;62920;53.572;10.050;2022-12-07T17:00:33;4.28;;;1.25;;